createdAt,value
2023-08-28T00:00:47.624Z,14.24
2023-08-28T00:03:15.516Z,14.22
2023-08-28T00:05:43.438Z,14.21
2023-08-28T00:08:11.543Z,14.20
2023-08-28T00:10:41.873Z,14.19
2023-08-28T00:13:09.770Z,14.20
2023-08-28T00:15:39.223Z,14.20
2023-08-28T00:18:07.332Z,14.20
2023-08-28T00:20:35.467Z,14.21
2023-08-28T00:23:03.663Z,14.19
2023-08-28T00:25:31.796Z,14.18
2023-08-28T00:27:59.776Z,14.19
2023-08-28T00:30:27.803Z,14.16
2023-08-28T00:32:57.325Z,14.16
2023-08-28T00:35:25.416Z,14.17
2023-08-28T00:37:53.478Z,14.15
2023-08-28T00:40:21.534Z,14.12
2023-08-28T00:42:49.519Z,14.13
2023-08-28T00:45:17.596Z,14.16
2023-08-28T00:47:47.435Z,14.14
2023-08-28T00:50:17.384Z,14.12
2023-08-28T00:52:45.673Z,14.14
2023-08-28T00:55:13.900Z,14.16
2023-08-28T00:57:42.197Z,14.15
2023-08-28T01:00:12.152Z,14.15
2023-08-28T01:02:41.362Z,14.13
2023-08-28T01:05:10.689Z,14.11
2023-08-28T01:07:48.974Z,14.14
2023-08-28T01:10:23.416Z,14.13
2023-08-28T01:12:57.884Z,14.15
2023-08-28T01:15:27.045Z,14.17
2023-08-28T01:17:58.679Z,14.15
2023-08-28T01:20:29.897Z,14.15
2023-08-28T01:23:04.312Z,14.12
2023-08-28T01:25:34.560Z,14.15
2023-08-28T01:28:03.230Z,14.18
2023-08-28T01:30:31.407Z,14.17
2023-08-28T01:32:59.462Z,14.14
2023-08-28T01:35:30.710Z,14.11
2023-08-28T01:38:11.020Z,14.12
2023-08-28T01:40:47.230Z,14.09
2023-08-28T01:43:21.005Z,14.09
2023-08-28T01:45:52.892Z,14.09
2023-08-28T01:48:21.025Z,14.10
2023-08-28T01:50:49.077Z,14.08
2023-08-28T01:53:17.119Z,14.05
2023-08-28T01:56:19.705Z,14.03
2023-08-28T01:58:49.356Z,14.07
2023-08-28T02:01:17.443Z,14.08
2023-08-28T02:03:45.805Z,14.11
2023-08-28T02:06:13.800Z,14.12
2023-08-28T02:08:42.251Z,14.13
2023-08-28T02:11:12.089Z,14.11
2023-08-28T02:13:40.180Z,14.10
2023-08-28T02:16:08.455Z,14.12
2023-08-28T02:18:36.449Z,14.11
2023-08-28T02:21:04.940Z,14.11
2023-08-28T02:23:33.501Z,14.07
2023-08-28T02:26:01.555Z,14.08
2023-08-28T02:28:30.833Z,14.08
2023-08-28T02:31:00.950Z,14.09
2023-08-28T02:33:29.532Z,14.07
2023-08-28T02:35:57.557Z,14.07
2023-08-28T02:38:28.128Z,14.08
2023-08-28T02:41:04.607Z,14.11
2023-08-28T02:43:34.172Z,14.14
2023-08-28T02:46:02.924Z,14.16
2023-08-28T02:48:30.951Z,14.17
2023-08-28T02:51:01.919Z,14.18
2023-08-28T02:53:30.051Z,14.17
2023-08-28T02:56:28.703Z,14.16
2023-08-28T02:58:58.546Z,14.17
2023-08-28T03:01:26.538Z,14.18
2023-08-28T03:03:54.645Z,14.18
2023-08-28T03:06:22.852Z,14.18
2023-08-28T03:08:50.916Z,14.18
2023-08-28T03:11:18.997Z,14.20
2023-08-28T03:13:47.131Z,14.20
2023-08-28T03:16:16.442Z,14.18
2023-08-28T03:18:44.457Z,14.16
2023-08-28T03:21:12.415Z,14.18
2023-08-28T03:23:40.559Z,14.16
2023-08-28T03:26:08.510Z,14.14
2023-08-28T03:28:36.537Z,14.11
2023-08-28T03:31:04.753Z,14.14
2023-08-28T03:33:34.219Z,14.14
2023-08-28T03:36:02.272Z,14.13
2023-08-28T03:38:30.238Z,14.15
2023-08-28T03:40:58.362Z,14.15
2023-08-28T03:43:26.506Z,14.18
2023-08-28T03:45:54.526Z,14.20
2023-08-28T03:48:22.465Z,14.23
2023-08-28T03:50:51.894Z,14.24
2023-08-28T03:53:19.977Z,14.26
2023-08-28T03:55:47.967Z,14.26
2023-08-28T03:58:16.754Z,14.28
2023-08-28T04:00:44.801Z,14.28
2023-08-28T04:03:12.834Z,14.29
2023-08-28T04:05:40.967Z,14.28
2023-08-28T04:08:12.985Z,14.31
2023-08-28T04:10:40.919Z,14.32
2023-08-28T04:13:11.783Z,14.32
2023-08-28T04:15:40.067Z,14.32
2023-08-28T04:18:09.337Z,14.32
2023-08-28T04:20:37.606Z,14.35
2023-08-28T04:23:05.905Z,14.36
2023-08-28T04:25:35.349Z,14.35
2023-08-28T04:28:03.393Z,14.36
2023-08-28T04:30:31.333Z,14.36
2023-08-28T04:32:59.424Z,14.33
2023-08-28T04:35:27.492Z,14.32
2023-08-28T04:37:55.558Z,14.33
2023-08-28T04:40:23.588Z,14.35
2023-08-28T04:42:53.360Z,14.37
2023-08-28T04:45:21.766Z,14.39
2023-08-28T04:47:49.891Z,14.43
2023-08-28T04:50:17.880Z,14.44
2023-08-28T04:52:48.323Z,14.46
2023-08-28T04:55:16.080Z,14.41
2023-08-28T04:57:44.105Z,14.46
2023-08-28T05:00:14.891Z,14.50
2023-08-28T05:02:42.812Z,14.51
2023-08-28T05:05:10.782Z,14.52
2023-08-28T05:09:51.439Z,14.52
2023-08-28T05:12:19.446Z,14.57
2023-08-28T05:14:47.419Z,14.58
2023-08-28T05:17:15.418Z,14.60
2023-08-28T05:19:43.342Z,14.63
2023-08-28T05:22:11.359Z,14.65
2023-08-28T05:24:39.644Z,14.67
2023-08-28T05:27:09.572Z,14.68
2023-08-28T05:29:37.513Z,14.69
2023-08-28T05:32:05.984Z,14.72
2023-08-28T05:34:33.920Z,14.74
2023-08-28T05:37:01.910Z,14.75
2023-08-28T05:39:29.921Z,14.76
2023-08-28T05:41:57.927Z,14.77
2023-08-28T05:44:27.304Z,14.79
2023-08-28T05:46:55.394Z,14.79
2023-08-28T05:49:23.330Z,14.81
2023-08-28T05:51:51.379Z,14.84
2023-08-28T05:54:19.263Z,14.85
2023-08-28T05:56:47.223Z,14.87
2023-08-28T05:59:15.200Z,14.90
2023-08-28T06:01:44.740Z,14.94
2023-08-28T06:04:12.892Z,14.92
2023-08-28T06:06:40.951Z,14.96
2023-08-28T06:09:08.967Z,14.97
2023-08-28T06:11:36.900Z,14.98
2023-08-28T06:14:04.922Z,14.99
2023-08-28T06:16:32.893Z,15.01
2023-08-28T06:19:04.828Z,15.05
2023-08-28T06:21:33.049Z,15.08
2023-08-28T06:24:01.592Z,15.10
2023-08-28T06:26:29.559Z,15.12
2023-08-28T06:28:57.644Z,15.15
2023-08-28T06:31:25.668Z,15.15
2023-08-28T06:33:53.931Z,15.17
2023-08-28T06:36:23.282Z,15.19
2023-08-28T06:38:53.377Z,15.22
2023-08-28T06:41:21.345Z,15.25
2023-08-28T06:43:50.150Z,15.26
2023-08-28T06:46:18.120Z,15.29
2023-08-28T06:48:46.065Z,15.30
2023-08-28T06:51:14.146Z,15.34
2023-08-28T06:53:43.638Z,15.33
2023-08-28T06:56:12.125Z,15.34
2023-08-28T06:58:40.057Z,15.37
2023-08-28T07:01:08.069Z,15.40
2023-08-28T07:03:36.443Z,15.41
2023-08-28T07:06:04.592Z,15.42
2023-08-28T07:08:32.658Z,15.44
2023-08-28T07:11:02.030Z,15.47
2023-08-28T07:13:29.951Z,15.49
2023-08-28T07:15:58.559Z,15.53
2023-08-28T07:18:26.676Z,15.55
2023-08-28T07:20:54.640Z,15.58
2023-08-28T07:23:23.720Z,15.58
2023-08-28T07:25:51.655Z,15.59
2023-08-28T07:28:22.270Z,15.58
2023-08-28T07:30:50.265Z,15.58
2023-08-28T07:33:18.528Z,15.59
2023-08-28T07:35:48.207Z,15.61
2023-08-28T07:38:16.385Z,15.63
2023-08-28T07:40:44.292Z,15.68
2023-08-28T07:43:12.142Z,15.73
2023-08-28T07:45:41.442Z,15.79
2023-08-28T07:48:09.865Z,15.83
2023-08-28T07:50:37.763Z,15.85
2023-08-28T07:53:06.403Z,15.88
2023-08-28T07:55:34.675Z,15.93
2023-08-28T07:58:04.993Z,15.99
2023-08-28T08:00:36.422Z,16.02
2023-08-28T08:03:06.640Z,16.05
2023-08-28T08:05:35.022Z,16.09
2023-08-28T08:08:02.995Z,16.14
2023-08-28T08:10:31.159Z,16.16
2023-08-28T08:12:59.020Z,16.18
2023-08-28T08:15:27.119Z,16.21
2023-08-28T08:17:55.013Z,16.24
2023-08-28T08:20:24.331Z,16.26
2023-08-28T08:22:55.161Z,16.29
2023-08-28T08:25:24.385Z,16.30
2023-08-28T08:27:52.546Z,16.31
2023-08-28T08:30:20.780Z,16.33
2023-08-28T08:32:49.170Z,16.35
2023-08-28T08:35:17.293Z,16.36
2023-08-28T08:37:48.963Z,16.36
2023-08-28T08:40:20.674Z,16.39
2023-08-28T08:42:48.972Z,16.40
2023-08-28T08:45:17.275Z,16.40
2023-08-28T08:47:50.306Z,16.39
2023-08-28T08:50:20.819Z,16.38
2023-08-28T08:52:50.320Z,16.27
2023-08-28T08:55:26.544Z,16.27
2023-08-28T08:57:56.592Z,16.27
2023-08-28T09:00:25.099Z,16.26
2023-08-28T09:02:54.156Z,16.25
2023-08-28T09:05:22.571Z,16.26
2023-08-28T09:07:52.160Z,16.27
2023-08-28T09:10:20.171Z,16.28
2023-08-28T09:12:48.749Z,16.30
2023-08-28T09:15:17.141Z,16.31
2023-08-28T09:17:45.329Z,16.31
2023-08-28T09:20:18.556Z,16.33
2023-08-28T09:22:53.241Z,16.36
2023-08-28T09:25:25.297Z,16.39
2023-08-28T09:27:55.168Z,16.42
2023-08-28T09:30:31.246Z,16.44
2023-08-28T09:33:00.413Z,16.44
2023-08-28T09:35:29.053Z,16.45
2023-08-28T09:37:58.191Z,16.45
2023-08-28T09:40:32.622Z,16.45
2023-08-28T09:43:01.366Z,16.47
2023-08-28T09:45:33.478Z,16.48
2023-08-28T09:48:04.827Z,16.51
2023-08-28T09:50:34.172Z,16.51
2023-08-28T09:53:09.028Z,16.50
2023-08-28T09:55:42.226Z,16.51
2023-08-28T09:58:11.352Z,16.47
2023-08-28T10:00:40.241Z,16.40
2023-08-28T10:03:09.578Z,16.35
2023-08-28T10:05:38.642Z,16.34
2023-08-28T10:08:09.201Z,16.39
2023-08-28T10:10:37.618Z,16.33
2023-08-28T10:13:10.818Z,16.39
2023-08-28T10:15:42.706Z,16.40
2023-08-28T10:18:18.308Z,16.42
2023-08-28T10:20:46.925Z,16.42
2023-08-28T10:23:15.493Z,16.41
2023-08-28T10:25:44.482Z,16.43
2023-08-28T10:28:14.951Z,16.42
2023-08-28T10:30:43.495Z,16.42
2023-08-28T10:33:14.137Z,16.44
2023-08-28T10:35:43.935Z,16.47
2023-08-28T10:38:13.052Z,16.48
2023-08-28T10:40:42.102Z,16.50
2023-08-28T10:43:11.168Z,16.50
2023-08-28T10:45:42.758Z,16.53
2023-08-28T10:48:10.755Z,16.55
2023-08-28T10:50:39.406Z,16.57
2023-08-28T10:53:07.935Z,16.59
2023-08-28T10:55:37.134Z,16.63
2023-08-28T10:58:05.828Z,16.61
2023-08-28T11:00:37.061Z,16.61
2023-08-28T11:03:09.905Z,16.66
2023-08-28T11:05:40.835Z,16.69
2023-08-28T11:08:09.999Z,16.69
2023-08-28T11:10:39.443Z,16.70
2023-08-28T11:13:08.637Z,16.74
2023-08-28T11:15:40.506Z,16.75
2023-08-28T11:18:27.389Z,16.76
2023-08-28T11:20:56.523Z,16.72
2023-08-28T11:23:25.932Z,16.68
2023-08-28T11:25:54.196Z,16.59
2023-08-28T11:28:30.922Z,16.57
2023-08-28T11:31:04.316Z,16.55
2023-08-28T11:33:41.955Z,16.54
2023-08-28T11:36:11.268Z,16.56
2023-08-28T11:38:42.330Z,16.55
2023-08-28T11:41:11.498Z,16.50
2023-08-28T11:43:41.301Z,16.47
2023-08-28T11:46:09.654Z,16.46
2023-08-28T11:48:38.395Z,16.45
2023-08-28T11:51:10.067Z,16.38
2023-08-28T11:53:41.461Z,16.35
2023-08-28T11:56:12.275Z,16.28
2023-08-28T11:58:41.818Z,16.17
2023-08-28T12:01:11.923Z,16.20
2023-08-28T12:03:43.338Z,16.20
2023-08-28T12:06:18.626Z,16.18
2023-08-28T12:08:48.700Z,16.17
2023-08-28T12:11:17.084Z,16.18
2023-08-28T12:13:44.964Z,16.19
2023-08-28T12:16:18.905Z,16.18
2023-08-28T12:18:48.456Z,16.14
2023-08-28T12:21:19.800Z,16.17
2023-08-28T12:23:52.737Z,16.22
2023-08-28T12:26:23.209Z,16.26
2023-08-28T12:28:51.190Z,16.29
2023-08-28T12:31:27.576Z,16.29
2023-08-28T12:33:56.479Z,16.26
2023-08-28T12:36:36.982Z,16.28
2023-08-28T12:39:06.565Z,16.24
2023-08-28T12:41:38.665Z,16.27
2023-08-28T12:44:07.179Z,16.30
2023-08-28T12:46:35.100Z,16.37
2023-08-28T12:49:04.576Z,16.43
2023-08-28T12:51:34.038Z,16.47
2023-08-28T12:54:01.934Z,16.44
2023-08-28T12:56:29.825Z,16.47
2023-08-28T12:58:57.686Z,16.53
2023-08-28T13:01:25.726Z,16.61
2023-08-28T13:03:54.505Z,16.67
2023-08-28T13:06:22.564Z,16.73
2023-08-28T13:08:52.086Z,16.74
2023-08-28T13:11:20.327Z,16.77
2023-08-28T13:13:48.256Z,16.79
2023-08-28T13:16:16.293Z,16.80
2023-08-28T13:18:44.442Z,16.81
2023-08-28T13:21:12.428Z,16.84
2023-08-28T13:23:40.346Z,16.88
2023-08-28T13:26:09.628Z,16.90
2023-08-28T13:28:37.614Z,16.91
2023-08-28T13:31:06.103Z,16.91
2023-08-28T13:33:34.106Z,16.94
2023-08-28T13:36:02.041Z,16.95
2023-08-28T13:38:29.995Z,16.97
2023-08-28T13:41:00.440Z,17.02
2023-08-28T13:43:29.966Z,17.02
2023-08-28T13:45:58.590Z,17.06
2023-08-28T13:48:26.537Z,17.11
2023-08-28T13:50:54.734Z,17.13
2023-08-28T13:53:22.859Z,17.14
2023-08-28T13:55:54.928Z,17.18
2023-08-28T13:58:23.460Z,17.20
2023-08-28T14:00:59.443Z,17.20
2023-08-28T14:03:29.092Z,17.17
2023-08-28T14:05:58.494Z,17.17
2023-08-28T14:08:26.435Z,17.14
2023-08-28T14:10:54.845Z,17.11
2023-08-28T14:13:22.776Z,17.14
2023-08-28T14:15:51.102Z,17.20
2023-08-28T14:18:23.377Z,17.25
2023-08-28T14:20:54.182Z,17.28
2023-08-28T14:23:22.682Z,17.29
2023-08-28T14:25:50.607Z,17.29
2023-08-28T14:28:21.907Z,17.32
2023-08-28T14:30:50.577Z,17.33
2023-08-28T14:33:19.577Z,17.34
2023-08-28T14:35:49.003Z,17.31
2023-08-28T14:38:16.897Z,17.30
2023-08-28T14:40:48.493Z,17.32
2023-08-28T14:43:17.092Z,17.24
2023-08-28T14:45:45.350Z,17.20
2023-08-28T14:48:13.939Z,17.17
2023-08-28T14:50:41.919Z,17.13
2023-08-28T14:53:11.318Z,17.07
2023-08-28T14:55:39.206Z,17.04
2023-08-28T14:58:07.144Z,17.00
2023-08-28T15:00:36.349Z,16.97
2023-08-28T15:03:05.838Z,16.99
2023-08-28T15:05:34.678Z,17.01
2023-08-28T15:10:33.833Z,17.08
2023-08-28T15:13:01.899Z,17.11
2023-08-28T15:15:30.033Z,17.13
2023-08-28T15:17:58.037Z,17.11
2023-08-28T15:20:26.247Z,17.09
2023-08-28T15:22:54.163Z,17.09
2023-08-28T15:25:22.109Z,17.05
2023-08-28T15:27:51.416Z,17.08
2023-08-28T15:30:19.623Z,17.13
2023-08-28T15:32:47.549Z,17.14
2023-08-28T15:35:15.745Z,17.11
2023-08-28T15:37:45.791Z,17.11
2023-08-28T15:40:13.919Z,17.10
2023-08-28T15:42:41.992Z,17.05
2023-08-28T15:45:12.169Z,17.01
2023-08-28T15:47:40.632Z,17.03
2023-08-28T15:50:10.772Z,17.07
2023-08-28T15:52:38.665Z,17.08
2023-08-28T15:55:07.502Z,17.11
2023-08-28T15:57:35.495Z,17.09
2023-08-28T16:00:03.892Z,17.09
2023-08-28T16:02:33.240Z,17.07
2023-08-28T16:05:01.343Z,17.05
2023-08-28T16:07:29.513Z,17.07
2023-08-28T16:09:57.448Z,17.05
2023-08-28T16:12:25.572Z,17.04
2023-08-28T16:14:53.440Z,17.02
2023-08-28T16:17:21.313Z,16.98
2023-08-28T16:19:50.586Z,16.97
2023-08-28T16:22:18.463Z,16.95
2023-08-28T16:24:46.356Z,16.97
2023-08-28T16:27:14.714Z,16.97
2023-08-28T16:29:42.936Z,16.95
2023-08-28T16:32:10.800Z,16.89
2023-08-28T16:34:38.769Z,16.84
2023-08-28T16:37:08.256Z,16.78
2023-08-28T16:39:36.251Z,16.73
2023-08-28T16:42:04.114Z,16.72
2023-08-28T16:44:33.007Z,16.72
2023-08-28T16:47:00.987Z,16.69
2023-08-28T16:49:28.872Z,16.68
2023-08-28T16:51:56.734Z,16.64
2023-08-28T16:54:25.999Z,16.63
2023-08-28T16:56:53.937Z,16.60
2023-08-28T16:59:22.008Z,16.59
2023-08-28T17:01:50.029Z,16.52
2023-08-28T17:04:17.916Z,16.49
2023-08-28T17:06:54.914Z,16.42
2023-08-28T17:09:30.072Z,16.37
2023-08-28T17:11:58.029Z,16.31
2023-08-28T17:14:25.938Z,16.30
2023-08-28T17:16:53.890Z,16.27
2023-08-28T17:19:22.164Z,16.21
2023-08-28T17:21:50.854Z,16.19
2023-08-28T17:24:19.649Z,16.15
2023-08-28T17:26:51.532Z,16.10
2023-08-28T17:29:19.390Z,16.10
2023-08-28T17:31:47.323Z,16.07
2023-08-28T17:34:15.215Z,16.05
2023-08-28T17:36:43.062Z,16.02
2023-08-28T17:39:17.620Z,15.95
2023-08-28T17:41:45.925Z,15.89
2023-08-28T17:44:15.190Z,15.85
2023-08-28T17:46:43.574Z,15.83
2023-08-28T17:49:11.453Z,15.80
2023-08-28T17:51:39.644Z,15.76
2023-08-28T17:54:07.657Z,15.70
2023-08-28T17:56:36.824Z,15.66
2023-08-28T17:59:05.668Z,15.63
2023-08-28T18:01:35.589Z,15.60
2023-08-28T18:04:03.528Z,15.58
2023-08-28T18:06:32.233Z,15.53
2023-08-28T18:09:00.300Z,15.49
2023-08-28T18:11:29.474Z,15.47
2023-08-28T18:13:57.469Z,15.43
2023-08-28T18:16:25.416Z,15.40
2023-08-28T18:18:56.930Z,15.32
2023-08-28T18:21:27.330Z,15.28
2023-08-28T18:23:55.231Z,15.24
2023-08-28T18:26:23.221Z,15.19
2023-08-28T18:28:52.068Z,15.14
2023-08-28T18:31:20.516Z,15.11
2023-08-28T18:33:48.525Z,15.08
2023-08-28T18:36:17.785Z,15.07
2023-08-28T18:38:45.734Z,15.03
2023-08-28T18:41:13.592Z,15.02
2023-08-28T18:43:41.762Z,15.01
2023-08-28T18:46:09.676Z,15.01
2023-08-28T18:48:37.696Z,14.98
2023-08-28T18:51:05.620Z,14.98
2023-08-28T18:53:34.908Z,14.95
2023-08-28T18:56:02.945Z,14.91
2023-08-28T18:58:32.951Z,14.92
2023-08-28T19:01:00.930Z,14.90
2023-08-28T19:03:28.884Z,14.88
2023-08-28T19:05:56.854Z,14.87
2023-08-28T19:08:24.841Z,14.89
2023-08-28T19:10:54.529Z,14.88
2023-08-28T19:13:22.492Z,14.88
2023-08-28T19:15:50.472Z,14.89
2023-08-28T19:18:18.641Z,14.88
2023-08-28T19:21:00.420Z,14.88
2023-08-28T19:23:30.448Z,14.87
2023-08-28T19:25:59.762Z,14.85
2023-08-28T19:28:28.356Z,14.87
2023-08-28T19:30:56.315Z,14.83
2023-08-28T19:33:24.473Z,14.83
2023-08-28T19:35:52.333Z,14.83
2023-08-28T19:38:20.585Z,14.82
2023-08-28T19:40:49.142Z,14.81
2023-08-28T19:43:19.015Z,14.79
2023-08-28T19:45:47.012Z,14.77
2023-08-28T19:48:15.049Z,14.75
2023-08-28T19:50:42.988Z,14.75
2023-08-28T19:53:11.490Z,14.73
2023-08-28T19:55:39.432Z,14.73
2023-08-28T19:58:07.531Z,14.72
2023-08-28T20:00:37.205Z,14.73
2023-08-28T20:03:05.777Z,14.71
2023-08-28T20:05:33.904Z,14.69
2023-08-28T20:08:02.045Z,14.68
2023-08-28T20:10:31.369Z,14.68
2023-08-28T20:12:59.243Z,14.69
2023-08-28T20:15:27.089Z,14.66
2023-08-28T20:17:56.527Z,14.67
2023-08-28T20:20:24.532Z,14.66
2023-08-28T20:22:52.400Z,14.64
2023-08-28T20:25:20.429Z,14.65
2023-08-28T20:27:49.054Z,14.63
2023-08-28T20:30:16.986Z,14.63
2023-08-28T20:32:45.715Z,14.62
2023-08-28T20:35:15.507Z,14.61
2023-08-28T20:37:43.480Z,14.61
2023-08-28T20:40:14.894Z,14.58
2023-08-28T20:42:43.656Z,14.60
2023-08-28T20:45:12.658Z,14.60
2023-08-28T20:47:41.348Z,14.61
2023-08-28T20:50:11.491Z,14.60
2023-08-28T20:52:41.144Z,14.56
2023-08-28T20:55:10.269Z,14.57
2023-08-28T20:57:38.775Z,14.57
2023-08-28T21:00:08.066Z,14.57
2023-08-28T21:02:35.983Z,14.58
2023-08-28T21:05:04.027Z,14.56
2023-08-28T21:07:32.020Z,14.54
2023-08-28T21:10:01.286Z,14.53
2023-08-28T21:12:29.128Z,14.50
2023-08-28T21:14:57.053Z,14.51
2023-08-28T21:17:25.011Z,14.49
2023-08-28T21:19:54.521Z,14.47
2023-08-28T21:22:24.870Z,14.46
2023-08-28T21:24:52.858Z,14.47
2023-08-28T21:27:22.096Z,14.46
2023-08-28T21:29:49.946Z,14.45
2023-08-28T21:32:18.149Z,14.45
2023-08-28T21:34:46.096Z,14.44
2023-08-28T21:37:14.066Z,14.43
2023-08-28T21:39:42.085Z,14.40
2023-08-28T21:42:09.988Z,14.39
2023-08-28T21:44:39.359Z,14.40
2023-08-28T21:47:07.389Z,14.38
2023-08-28T21:49:35.402Z,14.39
2023-08-28T21:52:03.313Z,14.38
2023-08-28T21:54:31.163Z,14.37
2023-08-28T21:56:59.044Z,14.36
2023-08-28T21:59:26.972Z,14.37
2023-08-28T22:01:56.230Z,14.36
2023-08-28T22:04:24.423Z,14.36
2023-08-28T22:06:52.402Z,14.35
2023-08-28T22:09:20.349Z,14.33
2023-08-28T22:11:48.196Z,14.34
2023-08-28T22:14:16.130Z,14.32
2023-08-28T22:16:44.083Z,14.33
2023-08-28T22:19:13.434Z,14.33
2023-08-28T22:21:42.589Z,14.33
2023-08-28T22:24:10.564Z,14.33
2023-08-28T22:26:38.486Z,14.31
2023-08-28T22:29:06.626Z,14.31
2023-08-28T22:31:34.487Z,14.32
2023-08-28T22:34:02.545Z,14.33
2023-08-28T22:36:31.774Z,14.31
2023-08-28T22:38:59.617Z,14.32
2023-08-28T22:41:27.529Z,14.32
2023-08-28T22:43:55.459Z,14.31
2023-08-28T22:46:23.387Z,14.31
2023-08-28T22:48:51.397Z,14.28
2023-08-28T22:51:19.339Z,14.27
2023-08-28T22:53:48.692Z,14.26
2023-08-28T22:56:16.573Z,14.25
2023-08-28T22:58:44.486Z,14.24
2023-08-28T23:01:13.389Z,14.23
2023-08-28T23:03:41.438Z,14.25
2023-08-28T23:06:09.395Z,14.26
2023-08-28T23:08:37.325Z,14.25
2023-08-28T23:11:06.712Z,14.25
2023-08-28T23:13:34.568Z,14.25
2023-08-28T23:16:02.452Z,14.26
2023-08-28T23:18:30.605Z,14.25
2023-08-28T23:20:58.727Z,14.25
2023-08-28T23:23:26.610Z,14.23
2023-08-28T23:25:55.361Z,14.24
2023-08-28T23:28:26.041Z,14.24
2023-08-28T23:30:54.722Z,14.25
2023-08-28T23:33:22.942Z,14.25
2023-08-28T23:35:50.870Z,14.25
2023-08-28T23:38:18.726Z,14.24
2023-08-28T23:40:46.581Z,14.25
2023-08-28T23:43:14.458Z,14.22
2023-08-28T23:45:44.010Z,14.22
2023-08-28T23:48:12.025Z,14.23
2023-08-28T23:50:40.022Z,14.24
2023-08-28T23:53:07.971Z,14.23
2023-08-28T23:55:35.894Z,14.22
2023-08-28T23:58:04.151Z,14.21
